sensor_id;sensor_type;location;lat;lon;timestamp;P1;durP1;ratioP1;P2;durP2;ratioP2
3347;SDS011;1687;49.540;8.574;2022-08-19T00:01:30;11.70;;;4.50;;
3347;SDS011;1687;49.540;8.574;2022-08-19T00:03:57;10.33;;;4.80;;
3347;SDS011;1687;49.540;8.574;2022-08-19T00:06:27;9.07;;;3.83;;
3347;SDS011;1687;49.540;8.574;2022-08-19T00:08:55;10.70;;;5.00;;
3347;SDS011;1687;49.540;8.574;2022-08-19T00:11:22;10.20;;;4.60;;
3347;SDS011;1687;49.540;8.574;2022-08-19T00:13:48;9.30;;;4.90;;
3347;SDS011;1687;49.540;8.574;2022-08-19T00:16:15;12.27;;;5.80;;
3347;SDS011;1687;49.540;8.574;2022-08-19T00:18:44;8.40;;;4.57;;
3347;SDS011;1687;49.540;8.574;2022-08-19T00:21:10;11.80;;;4.07;;
3347;SDS011;1687;49.540;8.574;2022-08-19T00:23:36;11.67;;;5.57;;
3347;SDS011;1687;49.540;8.574;2022-08-19T00:26:03;8.97;;;5.20;;
3347;SDS011;1687;49.540;8.574;2022-08-19T00:28:30;9.37;;;4.47;;
3347;SDS011;1687;49.540;8.574;2022-08-19T00:30:58;8.10;;;3.97;;
3347;SDS011;1687;49.540;8.574;2022-08-19T00:33:25;9.17;;;4.03;;
3347;SDS011;1687;49.540;8.574;2022-08-19T00:35:50;9.13;;;4.70;;
3347;SDS011;1687;49.540;8.574;2022-08-19T00:38:16;17.07;;;7.13;;
3347;SDS011;1687;49.540;8.574;2022-08-19T00:40:43;15.83;;;5.70;;
3347;SDS011;1687;49.540;8.574;2022-08-19T00:43:11;8.33;;;4.30;;
3347;SDS011;1687;49.540;8.574;2022-08-19T00:45:38;4.97;;;3.50;;
3347;SDS011;1687;49.540;8.574;2022-08-19T00:48:07;9.10;;;4.33;;
3347;SDS011;1687;49.540;8.574;2022-08-19T00:50:33;8.40;;;4.40;;
3347;SDS011;1687;49.540;8.574;2022-08-19T00:53:00;12.90;;;4.27;;
3347;SDS011;1687;49.540;8.574;2022-08-19T00:55:28;13.70;;;5.50;;
3347;SDS011;1687;49.540;8.574;2022-08-19T00:57:58;10.33;;;5.57;;
3347;SDS011;1687;49.540;8.574;2022-08-19T01:00:32;23.40;;;7.17;;
3347;SDS011;1687;49.540;8.574;2022-08-19T01:03:02;11.83;;;5.07;;
3347;SDS011;1687;49.540;8.574;2022-08-19T01:05:36;14.13;;;6.50;;
3347;SDS011;1687;49.540;8.574;2022-08-19T01:08:05;15.73;;;5.77;;
3347;SDS011;1687;49.540;8.574;2022-08-19T01:10:32;12.03;;;4.83;;
3347;SDS011;1687;49.540;8.574;2022-08-19T01:13:06;7.60;;;3.70;;
3347;SDS011;1687;49.540;8.574;2022-08-19T01:15:38;9.53;;;5.20;;
3347;SDS011;1687;49.540;8.574;2022-08-19T01:18:11;14.00;;;5.27;;
3347;SDS011;1687;49.540;8.574;2022-08-19T01:20:39;10.47;;;5.33;;
3347;SDS011;1687;49.540;8.574;2022-08-19T01:23:06;19.33;;;6.13;;
3347;SDS011;1687;49.540;8.574;2022-08-19T01:25:36;21.63;;;7.53;;
3347;SDS011;1687;49.540;8.574;2022-08-19T01:30:45;12.97;;;6.03;;
3347;SDS011;1687;49.540;8.574;2022-08-19T01:33:11;12.30;;;5.60;;
3347;SDS011;1687;49.540;8.574;2022-08-19T01:35:38;8.07;;;5.03;;
3347;SDS011;1687;49.540;8.574;2022-08-19T01:38:06;19.17;;;6.07;;
3347;SDS011;1687;49.540;8.574;2022-08-19T01:40:43;10.97;;;5.13;;
3347;SDS011;1687;49.540;8.574;2022-08-19T01:43:09;10.53;;;5.40;;
3347;SDS011;1687;49.540;8.574;2022-08-19T01:45:35;20.13;;;5.80;;
3347;SDS011;1687;49.540;8.574;2022-08-19T01:48:03;15.13;;;5.47;;
3347;SDS011;1687;49.540;8.574;2022-08-19T01:50:30;12.27;;;6.77;;
3347;SDS011;1687;49.540;8.574;2022-08-19T01:52:58;8.07;;;5.73;;
3347;SDS011;1687;49.540;8.574;2022-08-19T01:55:26;11.70;;;6.27;;
3347;SDS011;1687;49.540;8.574;2022-08-19T01:57:54;15.37;;;5.60;;
3347;SDS011;1687;49.540;8.574;2022-08-19T02:00:24;10.70;;;5.37;;
3347;SDS011;1687;49.540;8.574;2022-08-19T02:02:53;11.37;;;6.30;;
3347;SDS011;1687;49.540;8.574;2022-08-19T02:05:19;12.73;;;6.73;;
3347;SDS011;1687;49.540;8.574;2022-08-19T02:07:46;8.77;;;4.97;;
3347;SDS011;1687;49.540;8.574;2022-08-19T02:10:14;12.77;;;5.47;;
3347;SDS011;1687;49.540;8.574;2022-08-19T02:12:45;10.00;;;4.30;;
3347;SDS011;1687;49.540;8.574;2022-08-19T02:15:11;12.53;;;5.73;;
3347;SDS011;1687;49.540;8.574;2022-08-19T02:17:37;13.10;;;7.37;;
3347;SDS011;1687;49.540;8.574;2022-08-19T02:20:04;15.93;;;7.10;;
3347;SDS011;1687;49.540;8.574;2022-08-19T02:22:31;18.17;;;7.03;;
3347;SDS011;1687;49.540;8.574;2022-08-19T02:24:57;9.93;;;5.17;;
3347;SDS011;1687;49.540;8.574;2022-08-19T02:27:23;9.93;;;5.20;;
3347;SDS011;1687;49.540;8.574;2022-08-19T02:29:49;10.13;;;4.87;;
3347;SDS011;1687;49.540;8.574;2022-08-19T02:32:16;7.60;;;4.00;;
3347;SDS011;1687;49.540;8.574;2022-08-19T02:34:44;7.13;;;3.83;;
3347;SDS011;1687;49.540;8.574;2022-08-19T02:37:11;12.57;;;6.60;;
3347;SDS011;1687;49.540;8.574;2022-08-19T02:39:57;11.50;;;4.80;;
3347;SDS011;1687;49.540;8.574;2022-08-19T02:42:23;10.10;;;4.80;;
3347;SDS011;1687;49.540;8.574;2022-08-19T02:44:49;12.83;;;5.27;;
3347;SDS011;1687;49.540;8.574;2022-08-19T02:47:16;11.30;;;5.33;;
3347;SDS011;1687;49.540;8.574;2022-08-19T02:49:44;13.13;;;5.50;;
3347;SDS011;1687;49.540;8.574;2022-08-19T02:52:10;14.13;;;6.80;;
3347;SDS011;1687;49.540;8.574;2022-08-19T02:54:36;9.63;;;4.10;;
3347;SDS011;1687;49.540;8.574;2022-08-19T02:57:03;14.10;;;6.80;;
3347;SDS011;1687;49.540;8.574;2022-08-19T02:59:31;13.63;;;8.27;;
3347;SDS011;1687;49.540;8.574;2022-08-19T03:01:57;16.30;;;6.30;;
3347;SDS011;1687;49.540;8.574;2022-08-19T03:04:23;15.47;;;7.10;;
3347;SDS011;1687;49.540;8.574;2022-08-19T03:06:49;11.93;;;5.87;;
3347;SDS011;1687;49.540;8.574;2022-08-19T03:09:16;9.87;;;5.30;;
3347;SDS011;1687;49.540;8.574;2022-08-19T03:11:43;10.00;;;5.10;;
3347;SDS011;1687;49.540;8.574;2022-08-19T03:14:09;11.43;;;5.13;;
3347;SDS011;1687;49.540;8.574;2022-08-19T03:16:43;19.43;;;6.30;;
3347;SDS011;1687;49.540;8.574;2022-08-19T03:19:13;16.07;;;6.20;;
3347;SDS011;1687;49.540;8.574;2022-08-19T03:21:42;15.80;;;6.43;;
3347;SDS011;1687;49.540;8.574;2022-08-19T03:24:09;12.73;;;4.97;;
3347;SDS011;1687;49.540;8.574;2022-08-19T03:26:40;11.20;;;4.40;;
3347;SDS011;1687;49.540;8.574;2022-08-19T03:29:11;13.40;;;7.03;;
3347;SDS011;1687;49.540;8.574;2022-08-19T03:31:38;22.60;;;7.73;;
3347;SDS011;1687;49.540;8.574;2022-08-19T03:34:05;13.37;;;6.67;;
3347;SDS011;1687;49.540;8.574;2022-08-19T03:36:32;13.30;;;5.60;;
3347;SDS011;1687;49.540;8.574;2022-08-19T03:38:59;11.93;;;6.70;;
3347;SDS011;1687;49.540;8.574;2022-08-19T03:41:27;13.47;;;6.27;;
3347;SDS011;1687;49.540;8.574;2022-08-19T03:43:57;11.37;;;6.03;;
3347;SDS011;1687;49.540;8.574;2022-08-19T03:46:28;13.37;;;6.23;;
3347;SDS011;1687;49.540;8.574;2022-08-19T03:48:57;12.50;;;7.60;;
3347;SDS011;1687;49.540;8.574;2022-08-19T03:53:54;13.30;;;5.63;;
3347;SDS011;1687;49.540;8.574;2022-08-19T03:56:21;11.63;;;5.17;;
3347;SDS011;1687;49.540;8.574;2022-08-19T03:58:47;11.17;;;6.23;;
3347;SDS011;1687;49.540;8.574;2022-08-19T04:01:14;11.97;;;5.80;;
3347;SDS011;1687;49.540;8.574;2022-08-19T04:03:43;18.00;;;6.93;;
3347;SDS011;1687;49.540;8.574;2022-08-19T04:06:12;10.60;;;6.43;;
3347;SDS011;1687;49.540;8.574;2022-08-19T04:08:49;10.03;;;5.50;;
3347;SDS011;1687;49.540;8.574;2022-08-19T04:11:19;14.77;;;6.23;;
3347;SDS011;1687;49.540;8.574;2022-08-19T04:13:48;17.97;;;7.27;;
3347;SDS011;1687;49.540;8.574;2022-08-19T04:16:16;11.83;;;5.50;;
3347;SDS011;1687;49.540;8.574;2022-08-19T04:18:45;11.70;;;6.50;;
3347;SDS011;1687;49.540;8.574;2022-08-19T04:21:19;16.03;;;6.10;;
3347;SDS011;1687;49.540;8.574;2022-08-19T04:23:49;11.30;;;5.63;;
3347;SDS011;1687;49.540;8.574;2022-08-19T04:26:21;9.90;;;5.63;;
3347;SDS011;1687;49.540;8.574;2022-08-19T04:28:50;14.47;;;7.27;;
3347;SDS011;1687;49.540;8.574;2022-08-19T04:31:18;10.53;;;5.00;;
3347;SDS011;1687;49.540;8.574;2022-08-19T04:33:47;21.60;;;5.20;;
3347;SDS011;1687;49.540;8.574;2022-08-19T04:36:18;8.97;;;5.73;;
3347;SDS011;1687;49.540;8.574;2022-08-19T04:38:47;12.03;;;5.70;;
3347;SDS011;1687;49.540;8.574;2022-08-19T04:41:14;10.23;;;5.33;;
3347;SDS011;1687;49.540;8.574;2022-08-19T04:43:59;11.60;;;5.30;;
3347;SDS011;1687;49.540;8.574;2022-08-19T04:46:27;14.80;;;6.53;;
3347;SDS011;1687;49.540;8.574;2022-08-19T04:48:57;15.43;;;5.90;;
3347;SDS011;1687;49.540;8.574;2022-08-19T04:51:24;14.57;;;6.63;;
3347;SDS011;1687;49.540;8.574;2022-08-19T04:53:50;16.60;;;7.30;;
3347;SDS011;1687;49.540;8.574;2022-08-19T04:56:17;8.90;;;5.13;;
3347;SDS011;1687;49.540;8.574;2022-08-19T04:58:47;19.07;;;5.90;;
3347;SDS011;1687;49.540;8.574;2022-08-19T05:01:20;16.17;;;6.83;;
3347;SDS011;1687;49.540;8.574;2022-08-19T05:03:50;14.60;;;5.67;;
3347;SDS011;1687;49.540;8.574;2022-08-19T05:06:16;15.83;;;6.57;;
3347;SDS011;1687;49.540;8.574;2022-08-19T05:08:44;12.77;;;6.87;;
3347;SDS011;1687;49.540;8.574;2022-08-19T05:11:12;14.60;;;6.13;;
3347;SDS011;1687;49.540;8.574;2022-08-19T05:14:04;15.63;;;6.80;;
3347;SDS011;1687;49.540;8.574;2022-08-19T05:16:31;13.93;;;5.00;;
3347;SDS011;1687;49.540;8.574;2022-08-19T05:18:56;18.03;;;5.47;;
3347;SDS011;1687;49.540;8.574;2022-08-19T05:21:41;11.60;;;5.37;;
3347;SDS011;1687;49.540;8.574;2022-08-19T05:24:27;11.27;;;5.93;;
3347;SDS011;1687;49.540;8.574;2022-08-19T05:26:54;10.03;;;6.70;;
3347;SDS011;1687;49.540;8.574;2022-08-19T05:29:25;7.43;;;3.57;;
3347;SDS011;1687;49.540;8.574;2022-08-19T05:31:53;12.43;;;5.43;;
3347;SDS011;1687;49.540;8.574;2022-08-19T05:34:20;10.23;;;5.80;;
3347;SDS011;1687;49.540;8.574;2022-08-19T05:36:49;17.27;;;6.80;;
3347;SDS011;1687;49.540;8.574;2022-08-19T05:39:23;7.47;;;3.83;;
3347;SDS011;1687;49.540;8.574;2022-08-19T05:41:53;15.43;;;6.67;;
3347;SDS011;1687;49.540;8.574;2022-08-19T05:44:26;8.40;;;4.33;;
3347;SDS011;1687;49.540;8.574;2022-08-19T05:46:57;11.53;;;5.43;;
3347;SDS011;1687;49.540;8.574;2022-08-19T05:49:26;8.10;;;5.60;;
3347;SDS011;1687;49.540;8.574;2022-08-19T05:51:53;11.67;;;5.17;;
3347;SDS011;1687;49.540;8.574;2022-08-19T05:54:20;11.90;;;5.37;;
3347;SDS011;1687;49.540;8.574;2022-08-19T05:56:48;12.27;;;4.50;;
3347;SDS011;1687;49.540;8.574;2022-08-19T05:59:15;11.23;;;5.30;;
3347;SDS011;1687;49.540;8.574;2022-08-19T06:01:43;10.60;;;6.03;;
3347;SDS011;1687;49.540;8.574;2022-08-19T06:04:15;17.60;;;7.47;;
3347;SDS011;1687;49.540;8.574;2022-08-19T06:06:47;15.80;;;4.40;;
3347;SDS011;1687;49.540;8.574;2022-08-19T06:09:16;11.30;;;4.27;;
3347;SDS011;1687;49.540;8.574;2022-08-19T06:11:43;12.43;;;4.17;;
3347;SDS011;1687;49.540;8.574;2022-08-19T06:14:24;15.10;;;7.07;;
3347;SDS011;1687;49.540;8.574;2022-08-19T06:16:53;10.50;;;5.03;;
3347;SDS011;1687;49.540;8.574;2022-08-19T06:19:19;11.37;;;5.60;;
3347;SDS011;1687;49.540;8.574;2022-08-19T06:21:47;10.90;;;4.30;;
3347;SDS011;1687;49.540;8.574;2022-08-19T06:24:17;11.27;;;5.60;;
3347;SDS011;1687;49.540;8.574;2022-08-19T06:26:46;8.20;;;4.50;;
3347;SDS011;1687;49.540;8.574;2022-08-19T06:29:14;7.57;;;3.60;;
3347;SDS011;1687;49.540;8.574;2022-08-19T06:31:42;10.17;;;5.47;;
3347;SDS011;1687;49.540;8.574;2022-08-19T06:34:12;7.73;;;4.27;;
3347;SDS011;1687;49.540;8.574;2022-08-19T06:36:40;5.20;;;3.30;;
3347;SDS011;1687;49.540;8.574;2022-08-19T06:39:13;8.23;;;4.63;;
3347;SDS011;1687;49.540;8.574;2022-08-19T06:41:45;9.73;;;4.43;;
3347;SDS011;1687;49.540;8.574;2022-08-19T06:44:16;8.10;;;3.50;;
3347;SDS011;1687;49.540;8.574;2022-08-19T06:46:44;8.93;;;4.67;;
3347;SDS011;1687;49.540;8.574;2022-08-19T06:49:09;10.13;;;4.20;;
3347;SDS011;1687;49.540;8.574;2022-08-19T06:51:38;8.53;;;3.80;;
3347;SDS011;1687;49.540;8.574;2022-08-19T06:54:07;9.20;;;4.40;;
3347;SDS011;1687;49.540;8.574;2022-08-19T06:56:33;16.67;;;3.60;;
3347;SDS011;1687;49.540;8.574;2022-08-19T06:59:09;7.50;;;4.07;;
3347;SDS011;1687;49.540;8.574;2022-08-19T07:01:46;9.03;;;3.70;;
3347;SDS011;1687;49.540;8.574;2022-08-19T07:04:15;7.40;;;4.47;;
3347;SDS011;1687;49.540;8.574;2022-08-19T07:06:48;11.87;;;3.57;;
3347;SDS011;1687;49.540;8.574;2022-08-19T07:09:15;9.23;;;4.97;;
3347;SDS011;1687;49.540;8.574;2022-08-19T07:11:46;9.13;;;4.43;;
3347;SDS011;1687;49.540;8.574;2022-08-19T07:14:15;6.70;;;4.37;;
3347;SDS011;1687;49.540;8.574;2022-08-19T07:16:43;11.10;;;3.90;;
3347;SDS011;1687;49.540;8.574;2022-08-19T07:19:10;8.93;;;3.80;;
3347;SDS011;1687;49.540;8.574;2022-08-19T07:21:37;5.90;;;4.00;;
3347;SDS011;1687;49.540;8.574;2022-08-19T07:24:03;7.80;;;4.30;;
3347;SDS011;1687;49.540;8.574;2022-08-19T07:26:40;8.60;;;3.40;;
3347;SDS011;1687;49.540;8.574;2022-08-19T07:29:07;6.20;;;3.77;;
3347;SDS011;1687;49.540;8.574;2022-08-19T07:31:35;7.60;;;4.10;;
3347;SDS011;1687;49.540;8.574;2022-08-19T07:34:02;9.77;;;4.90;;
3347;SDS011;1687;49.540;8.574;2022-08-19T07:36:34;6.37;;;2.90;;
3347;SDS011;1687;49.540;8.574;2022-08-19T07:39:04;18.93;;;3.60;;
3347;SDS011;1687;49.540;8.574;2022-08-19T07:41:35;13.60;;;4.50;;
3347;SDS011;1687;49.540;8.574;2022-08-19T07:44:02;8.87;;;3.67;;
3347;SDS011;1687;49.540;8.574;2022-08-19T07:46:30;6.67;;;3.40;;
3347;SDS011;1687;49.540;8.574;2022-08-19T07:48:58;7.87;;;3.63;;
3347;SDS011;1687;49.540;8.574;2022-08-19T07:51:25;9.60;;;3.57;;
3347;SDS011;1687;49.540;8.574;2022-08-19T07:53:51;9.10;;;2.60;;
3347;SDS011;1687;49.540;8.574;2022-08-19T07:56:18;9.90;;;4.30;;
3347;SDS011;1687;49.540;8.574;2022-08-19T07:58:45;5.63;;;3.30;;
3347;SDS011;1687;49.540;8.574;2022-08-19T08:01:16;11.97;;;5.90;;
3347;SDS011;1687;49.540;8.574;2022-08-19T08:03:47;9.73;;;3.87;;
3347;SDS011;1687;49.540;8.574;2022-08-19T08:06:32;9.57;;;5.13;;
3347;SDS011;1687;49.540;8.574;2022-08-19T08:09:18;10.67;;;4.13;;
3347;SDS011;1687;49.540;8.574;2022-08-19T08:11:52;9.07;;;4.40;;
3347;SDS011;1687;49.540;8.574;2022-08-19T08:14:30;9.53;;;3.97;;
3347;SDS011;1687;49.540;8.574;2022-08-19T08:17:07;7.90;;;4.17;;
3347;SDS011;1687;49.540;8.574;2022-08-19T08:19:33;8.93;;;3.07;;
3347;SDS011;1687;49.540;8.574;2022-08-19T08:22:00;13.33;;;3.83;;
3347;SDS011;1687;49.540;8.574;2022-08-19T08:24:28;5.30;;;2.90;;
3347;SDS011;1687;49.540;8.574;2022-08-19T08:26:55;7.47;;;3.60;;
3347;SDS011;1687;49.540;8.574;2022-08-19T08:29:23;6.17;;;2.90;;
3347;SDS011;1687;49.540;8.574;2022-08-19T08:31:54;6.00;;;3.47;;
3347;SDS011;1687;49.540;8.574;2022-08-19T08:34:20;11.33;;;3.97;;
3347;SDS011;1687;49.540;8.574;2022-08-19T08:36:46;7.20;;;3.70;;
3347;SDS011;1687;49.540;8.574;2022-08-19T08:39:13;7.17;;;3.57;;
3347;SDS011;1687;49.540;8.574;2022-08-19T08:41:58;7.03;;;4.40;;
3347;SDS011;1687;49.540;8.574;2022-08-19T08:47:22;6.53;;;2.67;;
3347;SDS011;1687;49.540;8.574;2022-08-19T08:49:59;6.10;;;2.27;;
3347;SDS011;1687;49.540;8.574;2022-08-19T08:52:34;4.93;;;2.20;;
3347;SDS011;1687;49.540;8.574;2022-08-19T08:55:08;7.87;;;2.43;;
3347;SDS011;1687;49.540;8.574;2022-08-19T09:00:27;4.17;;;2.63;;
3347;SDS011;1687;49.540;8.574;2022-08-19T09:03:02;5.20;;;2.13;;
3347;SDS011;1687;49.540;8.574;2022-08-19T09:11:06;17.93;;;3.07;;
3347;SDS011;1687;49.540;8.574;2022-08-19T09:13:42;3.30;;;1.93;;
3347;SDS011;1687;49.540;8.574;2022-08-19T09:16:21;6.10;;;2.80;;
3347;SDS011;1687;49.540;8.574;2022-08-19T09:18:52;8.47;;;3.63;;
3347;SDS011;1687;49.540;8.574;2022-08-19T09:21:25;17.13;;;2.37;;
3347;SDS011;1687;49.540;8.574;2022-08-19T09:23:52;3.67;;;2.70;;
3347;SDS011;1687;49.540;8.574;2022-08-19T09:26:19;4.90;;;2.97;;
3347;SDS011;1687;49.540;8.574;2022-08-19T09:28:48;3.47;;;1.80;;
3347;SDS011;1687;49.540;8.574;2022-08-19T09:31:19;6.60;;;2.90;;
3347;SDS011;1687;49.540;8.574;2022-08-19T09:33:48;8.23;;;4.70;;
3347;SDS011;1687;49.540;8.574;2022-08-19T09:36:17;6.83;;;3.00;;
3347;SDS011;1687;49.540;8.574;2022-08-19T09:38:47;5.10;;;2.83;;
3347;SDS011;1687;49.540;8.574;2022-08-19T09:41:14;16.43;;;3.60;;
3347;SDS011;1687;49.540;8.574;2022-08-19T09:43:47;3.50;;;2.60;;
3347;SDS011;1687;49.540;8.574;2022-08-19T09:46:17;4.93;;;2.40;;
3347;SDS011;1687;49.540;8.574;2022-08-19T09:48:46;7.50;;;2.53;;
3347;SDS011;1687;49.540;8.574;2022-08-19T09:51:17;4.87;;;2.80;;
3347;SDS011;1687;49.540;8.574;2022-08-19T09:53:46;6.83;;;3.23;;
3347;SDS011;1687;49.540;8.574;2022-08-19T09:56:17;9.97;;;3.40;;
3347;SDS011;1687;49.540;8.574;2022-08-19T09:58:44;5.37;;;3.00;;
3347;SDS011;1687;49.540;8.574;2022-08-19T10:01:14;4.80;;;2.60;;
3347;SDS011;1687;49.540;8.574;2022-08-19T10:03:50;5.57;;;2.87;;
3347;SDS011;1687;49.540;8.574;2022-08-19T10:06:20;7.73;;;3.27;;
3347;SDS011;1687;49.540;8.574;2022-08-19T10:08:48;6.93;;;2.93;;
3347;SDS011;1687;49.540;8.574;2022-08-19T10:11:16;5.50;;;2.90;;
3347;SDS011;1687;49.540;8.574;2022-08-19T10:13:44;5.43;;;2.90;;
3347;SDS011;1687;49.540;8.574;2022-08-19T10:16:13;4.43;;;2.60;;
3347;SDS011;1687;49.540;8.574;2022-08-19T10:18:46;3.83;;;2.87;;
3347;SDS011;1687;49.540;8.574;2022-08-19T10:21:14;3.50;;;2.67;;
3347;SDS011;1687;49.540;8.574;2022-08-19T10:23:53;4.63;;;2.47;;
3347;SDS011;1687;49.540;8.574;2022-08-19T10:26:23;6.93;;;3.13;;
3347;SDS011;1687;49.540;8.574;2022-08-19T10:28:55;6.73;;;3.67;;
3347;SDS011;1687;49.540;8.574;2022-08-19T10:31:24;5.10;;;3.17;;
3347;SDS011;1687;49.540;8.574;2022-08-19T10:33:54;6.47;;;3.33;;
3347;SDS011;1687;49.540;8.574;2022-08-19T10:36:24;4.50;;;2.97;;
3347;SDS011;1687;49.540;8.574;2022-08-19T10:39:00;5.93;;;3.20;;
3347;SDS011;1687;49.540;8.574;2022-08-19T10:41:35;8.00;;;3.60;;
3347;SDS011;1687;49.540;8.574;2022-08-19T10:44:05;4.53;;;2.47;;
3347;SDS011;1687;49.540;8.574;2022-08-19T10:46:33;5.33;;;3.20;;
3347;SDS011;1687;49.540;8.574;2022-08-19T10:49:03;3.23;;;2.50;;
3347;SDS011;1687;49.540;8.574;2022-08-19T10:51:30;6.50;;;3.23;;
3347;SDS011;1687;49.540;8.574;2022-08-19T10:54:16;8.80;;;2.93;;
3347;SDS011;1687;49.540;8.574;2022-08-19T10:56:42;25.97;;;4.03;;
3347;SDS011;1687;49.540;8.574;2022-08-19T10:59:21;11.80;;;6.07;;
3347;SDS011;1687;49.540;8.574;2022-08-19T11:01:52;6.57;;;3.87;;
3347;SDS011;1687;49.540;8.574;2022-08-19T11:04:19;5.43;;;3.27;;
3347;SDS011;1687;49.540;8.574;2022-08-19T11:06:47;11.13;;;3.97;;
3347;SDS011;1687;49.540;8.574;2022-08-19T11:09:14;5.57;;;3.27;;
3347;SDS011;1687;49.540;8.574;2022-08-19T11:11:46;7.93;;;4.83;;
3347;SDS011;1687;49.540;8.574;2022-08-19T11:14:15;8.77;;;3.77;;
3347;SDS011;1687;49.540;8.574;2022-08-19T11:16:43;4.97;;;3.60;;
3347;SDS011;1687;49.540;8.574;2022-08-19T11:19:11;8.00;;;3.70;;
3347;SDS011;1687;49.540;8.574;2022-08-19T11:21:42;6.30;;;3.10;;
3347;SDS011;1687;49.540;8.574;2022-08-19T11:24:13;6.90;;;3.50;;
3347;SDS011;1687;49.540;8.574;2022-08-19T11:26:45;9.53;;;4.10;;
3347;SDS011;1687;49.540;8.574;2022-08-19T11:29:14;5.87;;;4.07;;
3347;SDS011;1687;49.540;8.574;2022-08-19T11:31:43;7.53;;;4.20;;
3347;SDS011;1687;49.540;8.574;2022-08-19T11:34:12;7.23;;;4.50;;
3347;SDS011;1687;49.540;8.574;2022-08-19T11:36:48;7.77;;;4.03;;
3347;SDS011;1687;49.540;8.574;2022-08-19T11:39:16;6.47;;;3.73;;
3347;SDS011;1687;49.540;8.574;2022-08-19T11:41:45;12.43;;;4.07;;
3347;SDS011;1687;49.540;8.574;2022-08-19T11:44:11;6.77;;;4.10;;
3347;SDS011;1687;49.540;8.574;2022-08-19T11:46:39;9.57;;;3.73;;
3347;SDS011;1687;49.540;8.574;2022-08-19T11:49:06;7.43;;;3.80;;
3347;SDS011;1687;49.540;8.574;2022-08-19T11:51:34;10.93;;;3.87;;
3347;SDS011;1687;49.540;8.574;2022-08-19T11:54:00;6.80;;;4.20;;
3347;SDS011;1687;49.540;8.574;2022-08-19T11:56:29;6.70;;;4.43;;
3347;SDS011;1687;49.540;8.574;2022-08-19T11:58:55;7.53;;;4.30;;
3347;SDS011;1687;49.540;8.574;2022-08-19T12:01:23;4.30;;;3.00;;
3347;SDS011;1687;49.540;8.574;2022-08-19T12:03:51;11.10;;;3.97;;
3347;SDS011;1687;49.540;8.574;2022-08-19T12:06:28;8.07;;;4.23;;
3347;SDS011;1687;49.540;8.574;2022-08-19T12:08:57;5.53;;;3.03;;
3347;SDS011;1687;49.540;8.574;2022-08-19T12:11:25;9.40;;;5.33;;
3347;SDS011;1687;49.540;8.574;2022-08-19T12:13:51;9.20;;;3.40;;
3347;SDS011;1687;49.540;8.574;2022-08-19T12:16:20;5.50;;;3.70;;
3347;SDS011;1687;49.540;8.574;2022-08-19T12:18:49;11.00;;;4.00;;
3347;SDS011;1687;49.540;8.574;2022-08-19T12:21:16;7.27;;;3.87;;
3347;SDS011;1687;49.540;8.574;2022-08-19T12:23:48;6.40;;;4.00;;
3347;SDS011;1687;49.540;8.574;2022-08-19T12:26:15;5.27;;;3.00;;
3347;SDS011;1687;49.540;8.574;2022-08-19T12:28:41;5.70;;;3.40;;
3347;SDS011;1687;49.540;8.574;2022-08-19T12:31:07;9.80;;;5.30;;
3347;SDS011;1687;49.540;8.574;2022-08-19T12:33:36;5.07;;;3.23;;
3347;SDS011;1687;49.540;8.574;2022-08-19T12:36:04;5.93;;;3.00;;
3347;SDS011;1687;49.540;8.574;2022-08-19T12:38:32;5.80;;;3.70;;
3347;SDS011;1687;49.540;8.574;2022-08-19T12:40:59;8.00;;;4.93;;
3347;SDS011;1687;49.540;8.574;2022-08-19T12:43:25;8.03;;;3.90;;
3347;SDS011;1687;49.540;8.574;2022-08-19T12:45:51;4.27;;;2.23;;
3347;SDS011;1687;49.540;8.574;2022-08-19T12:48:17;5.47;;;2.40;;
3347;SDS011;1687;49.540;8.574;2022-08-19T12:50:43;5.47;;;2.93;;
3347;SDS011;1687;49.540;8.574;2022-08-19T12:53:13;4.23;;;2.40;;
3347;SDS011;1687;49.540;8.574;2022-08-19T12:55:40;3.40;;;2.40;;
3347;SDS011;1687;49.540;8.574;2022-08-19T12:58:07;4.03;;;2.50;;
3347;SDS011;1687;49.540;8.574;2022-08-19T13:00:33;4.57;;;3.33;;
3347;SDS011;1687;49.540;8.574;2022-08-19T13:02:59;5.23;;;3.00;;
3347;SDS011;1687;49.540;8.574;2022-08-19T13:05:27;7.47;;;3.20;;
3347;SDS011;1687;49.540;8.574;2022-08-19T13:07:56;6.47;;;3.47;;
3347;SDS011;1687;49.540;8.574;2022-08-19T13:10:25;4.27;;;2.73;;
3347;SDS011;1687;49.540;8.574;2022-08-19T13:13:00;6.50;;;3.07;;
3347;SDS011;1687;49.540;8.574;2022-08-19T13:15:32;3.37;;;2.97;;
3347;SDS011;1687;49.540;8.574;2022-08-19T13:18:00;5.27;;;2.90;;
3347;SDS011;1687;49.540;8.574;2022-08-19T13:20:26;7.97;;;3.43;;
3347;SDS011;1687;49.540;8.574;2022-08-19T13:22:52;4.87;;;3.07;;
3347;SDS011;1687;49.540;8.574;2022-08-19T13:25:18;6.00;;;2.50;;
3347;SDS011;1687;49.540;8.574;2022-08-19T13:27:46;4.10;;;2.43;;
3347;SDS011;1687;49.540;8.574;2022-08-19T13:30:13;3.23;;;1.97;;
3347;SDS011;1687;49.540;8.574;2022-08-19T13:33:00;3.93;;;2.23;;
3347;SDS011;1687;49.540;8.574;2022-08-19T13:35:35;3.40;;;2.50;;
3347;SDS011;1687;49.540;8.574;2022-08-19T13:38:03;7.00;;;2.27;;
3347;SDS011;1687;49.540;8.574;2022-08-19T13:40:29;4.20;;;2.50;;
3347;SDS011;1687;49.540;8.574;2022-08-19T13:42:58;5.73;;;2.70;;
3347;SDS011;1687;49.540;8.574;2022-08-19T13:45:25;4.00;;;2.60;;
3347;SDS011;1687;49.540;8.574;2022-08-19T13:47:54;3.30;;;2.33;;
3347;SDS011;1687;49.540;8.574;2022-08-19T13:50:23;3.97;;;2.13;;
3347;SDS011;1687;49.540;8.574;2022-08-19T13:52:52;4.30;;;2.20;;
3347;SDS011;1687;49.540;8.574;2022-08-19T13:55:19;5.50;;;2.60;;
3347;SDS011;1687;49.540;8.574;2022-08-19T13:57:49;4.23;;;2.10;;
3347;SDS011;1687;49.540;8.574;2022-08-19T14:00:17;3.87;;;2.07;;
3347;SDS011;1687;49.540;8.574;2022-08-19T14:02:44;2.30;;;2.10;;
3347;SDS011;1687;49.540;8.574;2022-08-19T14:05:12;3.57;;;2.00;;
3347;SDS011;1687;49.540;8.574;2022-08-19T14:07:40;6.03;;;2.30;;
3347;SDS011;1687;49.540;8.574;2022-08-19T14:10:07;3.13;;;2.50;;
3347;SDS011;1687;49.540;8.574;2022-08-19T14:12:35;3.37;;;2.30;;
3347;SDS011;1687;49.540;8.574;2022-08-19T14:15:02;4.47;;;2.93;;
3347;SDS011;1687;49.540;8.574;2022-08-19T14:17:30;2.93;;;1.53;;
3347;SDS011;1687;49.540;8.574;2022-08-19T14:19:56;2.23;;;1.93;;
3347;SDS011;1687;49.540;8.574;2022-08-19T14:22:25;2.50;;;1.97;;
3347;SDS011;1687;49.540;8.574;2022-08-19T14:24:51;2.47;;;1.90;;
3347;SDS011;1687;49.540;8.574;2022-08-19T14:27:16;2.33;;;1.90;;
3347;SDS011;1687;49.540;8.574;2022-08-19T14:29:42;2.50;;;1.93;;
3347;SDS011;1687;49.540;8.574;2022-08-19T14:32:08;2.90;;;2.37;;
3347;SDS011;1687;49.540;8.574;2022-08-19T14:34:34;2.40;;;1.83;;
3347;SDS011;1687;49.540;8.574;2022-08-19T14:37:02;3.23;;;2.00;;
3347;SDS011;1687;49.540;8.574;2022-08-19T14:39:27;1.90;;;1.63;;
3347;SDS011;1687;49.540;8.574;2022-08-19T14:41:53;2.10;;;2.00;;
3347;SDS011;1687;49.540;8.574;2022-08-19T14:44:19;2.27;;;1.97;;
3347;SDS011;1687;49.540;8.574;2022-08-19T14:46:45;1.40;;;1.30;;
3347;SDS011;1687;49.540;8.574;2022-08-19T14:49:10;1.93;;;1.83;;
3347;SDS011;1687;49.540;8.574;2022-08-19T14:51:37;1.37;;;1.20;;
3347;SDS011;1687;49.540;8.574;2022-08-19T14:54:03;1.60;;;1.43;;
3347;SDS011;1687;49.540;8.574;2022-08-19T14:56:29;3.97;;;2.30;;
3347;SDS011;1687;49.540;8.574;2022-08-19T14:58:55;1.93;;;1.83;;
3347;SDS011;1687;49.540;8.574;2022-08-19T15:01:25;3.13;;;2.00;;
3347;SDS011;1687;49.540;8.574;2022-08-19T15:03:51;1.90;;;1.70;;
3347;SDS011;1687;49.540;8.574;2022-08-19T15:06:18;2.50;;;1.90;;
3347;SDS011;1687;49.540;8.574;2022-08-19T15:08:44;2.83;;;1.80;;
3347;SDS011;1687;49.540;8.574;2022-08-19T15:11:12;1.63;;;1.53;;
3347;SDS011;1687;49.540;8.574;2022-08-19T15:13:42;1.53;;;1.43;;
3347;SDS011;1687;49.540;8.574;2022-08-19T15:16:09;2.37;;;1.93;;
3347;SDS011;1687;49.540;8.574;2022-08-19T15:18:35;3.33;;;2.10;;
3347;SDS011;1687;49.540;8.574;2022-08-19T15:21:02;2.13;;;1.70;;
3347;SDS011;1687;49.540;8.574;2022-08-19T15:23:28;1.60;;;1.33;;
3347;SDS011;1687;49.540;8.574;2022-08-19T15:25:54;2.23;;;1.87;;
3347;SDS011;1687;49.540;8.574;2022-08-19T15:28:21;1.83;;;1.63;;
3347;SDS011;1687;49.540;8.574;2022-08-19T15:30:48;2.50;;;2.17;;
3347;SDS011;1687;49.540;8.574;2022-08-19T15:33:14;1.87;;;1.33;;
3347;SDS011;1687;49.540;8.574;2022-08-19T15:35:42;1.50;;;1.20;;
3347;SDS011;1687;49.540;8.574;2022-08-19T15:38:08;2.43;;;2.00;;